Salvamar Alcyone — EC2475 — position and weather

sailwx.info

Track history (hours):
 
Tides and Currents Weather Stations Pressure Air Temp Water Temp Dewpoint Dewpoint Depression Visibility Wind Speed Wind Dir Waves Ship Positions

Salvamar Alcyone

Last reported at 2018-Jun-22 12:52 UTC. Time now 2018-Jun-24 05:31 UTC.
Position N 43°20' W 003°03'.

Length 21 m; draft 1 m.

Type: SAR. MMSI: 224379540.

Date/timePositionNaut miles runAvg speedWind from/ knotsBaromVisibWave heightAir tempDewpointWater temp
2018-Jun-22 12:52N 43°20' W 003°03'0 0.0
2018-Jun-22 12:28N 43°20' W 003°03'0 0.0
2018-Jun-22 11:58N 43°20' W 003°03'0 0.0
2018-Jun-22 11:28N 43°20' W 003°03'0 0.0
2018-Jun-22 10:55N 43°20' W 003°03'0 0.0
2018-Jun-22 10:28N 43°20' W 003°03'0 0.0
2018-Jun-22 09:58N 43°20' W 003°03'0 0.0
2018-Jun-22 09:28N 43°20' W 003°03'0 0.0
2018-Jun-22 08:58N 43°20' W 003°03'0 0.0
2018-Jun-22 08:28N 43°20' W 003°03'0 0.0
2018-Jun-22 07:58N 43°20' W 003°03'0 0.0
2018-Jun-22 07:28N 43°20' W 003°03'0 0.0
2018-Jun-22 06:58N 43°20' W 003°03'0 0.0
2018-Jun-22 06:28N 43°20' W 003°03'0 0.0
2018-Jun-21 11:59N 43°20' W 003°03'0 0.0
2018-Jun-21 11:29N 43°20' W 003°03'0 0.0
2018-Jun-21 10:59N 43°20' W 003°03'0 0.0
2018-Jun-21 10:26N 43°20' W 003°03'0 0.0
2018-Jun-21 09:59N 43°20' W 003°03'0 0.0
2018-Jun-21 09:29N 43°20' W 003°03'0 0.0
2018-Jun-21 08:52N 43°20' W 003°03'0 0.0
2018-Jun-21 08:27N 43°20' W 003°03'0 0.0
2018-Jun-21 08:00N 43°20' W 003°03'0 0.0
2018-Jun-21 07:30N 43°20' W 003°03'0 0.0
2018-Jun-21 07:00N 43°20' W 003°03'0 0.0
2018-Jun-21 06:30N 43°20' W 003°03'0 0.0
2018-Jun-20 16:34N 43°20' W 003°03'0 0.0
2018-Jun-20 16:28N 43°20' W 003°03'0 0.0
2018-Jun-20 15:58N 43°20' W 003°03'0 0.0
2018-Jun-20 15:28N 43°20' W 003°03'0 0.0
2018-Jun-20 14:58N 43°20' W 003°03'0 0.0
2018-Jun-20 14:25N 43°20' W 003°03'0 0.0
2018-Jun-20 13:58N 43°20' W 003°03'0 0.0
2018-Jun-20 13:25N 43°20' W 003°03'0 0.0
2018-Jun-20 12:58N 43°20' W 003°03'0 0.0
2018-Jun-20 12:28N 43°20' W 003°03'0 0.0
2018-Jun-20 11:58N 43°20' W 003°03'0 0.0
2018-Jun-20 11:28N 43°20' W 003°03'0 0.0
2018-Jun-20 10:58N 43°20' W 003°03'1 1.6
2018-Jun-20 10:30N 43°20' W 003°02'0 0.5
2018-Jun-20 09:58N 43°20' W 003°02'1 1.2
2018-Jun-20 09:30N 43°20' W 003°01'0 0.9
2018-Jun-20 09:00N 43°20' W 003°01'511.0
2018-Jun-20 08:30N 43°25' W 002°57'611.7
2018-Jun-20 08:00N 43°20' W 003°02'1 1.0
2018-Jun-20 07:28N 43°20' W 003°03'0 0.0
2018-Jun-20 06:58N 43°20' W 003°03'0 0.0
2018-Jun-20 06:28N 43°20' W 003°03'0 0.0
2018-Jun-19 12:48N 43°20' W 003°03'0 0.0
2018-Jun-19 12:25N 43°20' W 003°03'0 0.0
2018-Jun-19 11:55N 43°20' W 003°03'0 0.0
2018-Jun-19 11:28N 43°20' W 003°03'0 0.0
2018-Jun-19 10:58N 43°20' W 003°03'0 0.0
2018-Jun-19 10:28N 43°20' W 003°03'1 0.7
2018-Jun-19 08:37N 43°20' W 003°01'1 9.7
2018-Jun-19 08:30N 43°20' W 003°02'0 0.4
2018-Jun-19 07:59N 43°20' W 003°03'0 0.0
2018-Jun-19 07:29N 43°20' W 003°03'0 0.0
2018-Jun-19 06:59N 43°20' W 003°03'0 0.0
2018-Jun-19 06:26N 43°20' W 003°03'0 0.0
2018-Jun-19 05:56N 43°20' W 003°03'0 0.0
2018-Jun-18 12:54N 43°20' W 003°03'0 0.0
2018-Jun-18 12:30N 43°20' W 003°03'0 0.0
2018-Jun-18 12:00N 43°20' W 003°03'3 6.2
2018-Jun-18 11:30N 43°23' W 003°05'1122.2
2018-Jun-18 11:00N 43°26' W 003°20'4 4.3
2018-Jun-18 10:08N 43°25' W 003°25'220.2
2018-Jun-18 10:00N 43°26' W 003°22'815.6
2018-Jun-18 09:30N 43°23' W 003°12'714.8
2018-Jun-18 09:00N 43°20' W 003°02'0 0.4
2018-Jun-18 08:26N 43°20' W 003°03'0 0.0
2018-Jun-18 07:53N 43°20' W 003°03'0 0.0
2018-Jun-18 07:26N 43°20' W 003°03'0 0.0
2018-Jun-18 06:59N 43°20' W 003°03'0 0.0
2018-Jun-17 20:18N 43°20' W 003°03'  
2018-Jun-15 14:05N 43°20' W 003°03'0 0.0
2018-Jun-15 13:59N 43°20' W 003°03'0 0.0
2018-Jun-15 13:29N 43°20' W 003°03'0 0.0
2018-Jun-15 12:59N 43°20' W 003°03'0 0.0
2018-Jun-15 12:29N 43°20' W 003°03'0 0.0
2018-Jun-15 11:59N 43°20' W 003°03'0 0.0
2018-Jun-15 11:29N 43°20' W 003°03'0 0.0
2018-Jun-15 10:53N 43°20' W 003°03'0 0.0
2018-Jun-15 10:29N 43°20' W 003°03'0 0.0
2018-Jun-15 09:59N 43°20' W 003°03'0 0.0
2018-Jun-15 09:29N 43°20' W 003°03'0 0.0
2018-Jun-15 08:59N 43°20' W 003°03'0 0.0
2018-Jun-15 08:29N 43°20' W 003°03'0 0.0
2018-Jun-14 23:03N 43°20' W 003°03'0 0.0
2018-Jun-14 23:00N 43°20' W 003°03'3 6.9
2018-Jun-14 22:30N 43°24' W 003°02'918.4
2018-Jun-14 22:00N 43°26' W 002°50'1 1.7
2018-Jun-14 21:30N 43°26' W 002°51'918.8
2018-Jun-14 21:00N 43°23' W 003°03'3 0.5
2018-Jun-14 16:03N 43°20' W 003°03'0 0.0
2018-Jun-14 15:54N 43°20' W 003°03'0 0.0
2018-Jun-14 15:30N 43°20' W 003°03'0 0.0
2018-Jun-14 15:00N 43°20' W 003°03'0 0.0
2018-Jun-14 14:30N 43°20' W 003°03'0 0.0
2018-Jun-14 14:00N 43°20' W 003°03'0 0.0
2018-Jun-14 13:30N 43°20' W 003°03'0 0.1
2018-Jun-14 13:00N 43°20' W 003°03'0 0.1
2018-Jun-14 12:30N 43°20' W 003°03'0 0.0
2018-Jun-14 12:00N 43°20' W 003°03'0 0.0
2018-Jun-14 11:30N 43°20' W 003°03'0 0.0
2018-Jun-14 11:00N 43°20' W 003°03'0 0.0
2018-Jun-14 10:30N 43°20' W 003°03'0 0.0
2018-Jun-14 10:00N 43°20' W 003°03'0 0.0
2018-Jun-14 09:30N 43°20' W 003°03'0 0.0
2018-Jun-14 09:00N 43°20' W 003°03'0 0.0
2018-Jun-14 08:30N 43°20' W 003°03'0 0.0
2018-Jun-14 08:00N 43°20' W 003°03'0 0.0
2018-Jun-14 07:30N 43°20' W 003°03'0 0.0
2018-Jun-14 07:00N 43°20' W 003°03'0 0.0
2018-Jun-13 12:12N 43°20' W 003°03'0 0.0
2018-Jun-13 12:00N 43°20' W 003°03'713.7
2018-Jun-13 11:30N 43°23' W 003°11'1 0.8
2018-Jun-13 09:59N 43°23' W 003°13'511.4
2018-Jun-13 09:31N 43°23' W 003°05'3 6.2
2018-Jun-13 08:59N 43°20' W 003°03'0 0.0
2018-Jun-13 08:29N 43°20' W 003°03'0 0.0
2018-Jun-13 07:59N 43°20' W 003°03'0 0.0
2018-Jun-13 07:29N 43°20' W 003°03'0 0.0
2018-Jun-13 06:59N 43°20' W 003°03'  
Track history (hours):
 
Tides and Currents Weather Stations Pressure Air Temp Water Temp Dewpoint Dewpoint Depression Visibility Wind Speed Wind Dir Waves Ship Positions

Salvamar Alcyone

Last reported at 2018-Jun-22 12:52 UTC. Time now 2018-Jun-24 05:31 UTC.
Position N 43°20' W 003°03'.

Length 21 m; draft 1 m.

Type: SAR. MMSI: 224379540.

Date/timePositionNaut miles runAvg speedWind from/ knotsBaromVisibWave heightAir tempDewpointWater temp
2018-Jun-22 12:52N 43°20' W 003°03'0 0.0
2018-Jun-22 12:28N 43°20' W 003°03'0 0.0
2018-Jun-22 11:58N 43°20' W 003°03'0 0.0
2018-Jun-22 11:28N 43°20' W 003°03'0 0.0
2018-Jun-22 10:55N 43°20' W 003°03'0 0.0
2018-Jun-22 10:28N 43°20' W 003°03'0 0.0
2018-Jun-22 09:58N 43°20' W 003°03'0 0.0
2018-Jun-22 09:28N 43°20' W 003°03'0 0.0
2018-Jun-22 08:58N 43°20' W 003°03'0 0.0
2018-Jun-22 08:28N 43°20' W 003°03'0 0.0
2018-Jun-22 07:58N 43°20' W 003°03'0 0.0
2018-Jun-22 07:28N 43°20' W 003°03'0 0.0
2018-Jun-22 06:58N 43°20' W 003°03'0 0.0
2018-Jun-22 06:28N 43°20' W 003°03'0 0.0
2018-Jun-21 11:59N 43°20' W 003°03'0 0.0
2018-Jun-21 11:29N 43°20' W 003°03'0 0.0
2018-Jun-21 10:59N 43°20' W 003°03'0 0.0
2018-Jun-21 10:26N 43°20' W 003°03'0 0.0
2018-Jun-21 09:59N 43°20' W 003°03'0 0.0
2018-Jun-21 09:29N 43°20' W 003°03'0 0.0
2018-Jun-21 08:52N 43°20' W 003°03'0 0.0
2018-Jun-21 08:27N 43°20' W 003°03'0 0.0
2018-Jun-21 08:00N 43°20' W 003°03'0 0.0
2018-Jun-21 07:30N 43°20' W 003°03'0 0.0
2018-Jun-21 07:00N 43°20' W 003°03'0 0.0
2018-Jun-21 06:30N 43°20' W 003°03'0 0.0
2018-Jun-20 16:34N 43°20' W 003°03'0 0.0
2018-Jun-20 16:28N 43°20' W 003°03'0 0.0
2018-Jun-20 15:58N 43°20' W 003°03'0 0.0
2018-Jun-20 15:28N 43°20' W 003°03'0 0.0
2018-Jun-20 14:58N 43°20' W 003°03'0 0.0
2018-Jun-20 14:25N 43°20' W 003°03'0 0.0
2018-Jun-20 13:58N 43°20' W 003°03'0 0.0
2018-Jun-20 13:25N 43°20' W 003°03'0 0.0
2018-Jun-20 12:58N 43°20' W 003°03'0 0.0
2018-Jun-20 12:28N 43°20' W 003°03'0 0.0
2018-Jun-20 11:58N 43°20' W 003°03'0 0.0
2018-Jun-20 11:28N 43°20' W 003°03'0 0.0
2018-Jun-20 10:58N 43°20' W 003°03'1 1.6
2018-Jun-20 10:30N 43°20' W 003°02'0 0.5
2018-Jun-20 09:58N 43°20' W 003°02'1 1.2
2018-Jun-20 09:30N 43°20' W 003°01'0 0.9
2018-Jun-20 09:00N 43°20' W 003°01'511.0
2018-Jun-20 08:30N 43°25' W 002°57'611.7
2018-Jun-20 08:00N 43°20' W 003°02'1 1.0
2018-Jun-20 07:28N 43°20' W 003°03'0 0.0
2018-Jun-20 06:58N 43°20' W 003°03'0 0.0
2018-Jun-20 06:28N 43°20' W 003°03'0 0.0
2018-Jun-19 12:48N 43°20' W 003°03'0 0.0
2018-Jun-19 12:25N 43°20' W 003°03'0 0.0
2018-Jun-19 11:55N 43°20' W 003°03'0 0.0
2018-Jun-19 11:28N 43°20' W 003°03'0 0.0
2018-Jun-19 10:58N 43°20' W 003°03'0 0.0
2018-Jun-19 10:28N 43°20' W 003°03'1 0.7
2018-Jun-19 08:37N 43°20' W 003°01'1 9.7
2018-Jun-19 08:30N 43°20' W 003°02'0 0.4
2018-Jun-19 07:59N 43°20' W 003°03'0 0.0
2018-Jun-19 07:29N 43°20' W 003°03'0 0.0
2018-Jun-19 06:59N 43°20' W 003°03'0 0.0
2018-Jun-19 06:26N 43°20' W 003°03'0 0.0
2018-Jun-19 05:56N 43°20' W 003°03'0 0.0
2018-Jun-18 12:54N 43°20' W 003°03'0 0.0
2018-Jun-18 12:30N 43°20' W 003°03'0 0.0
2018-Jun-18 12:00N 43°20' W 003°03'3 6.2
2018-Jun-18 11:30N 43°23' W 003°05'1122.2
2018-Jun-18 11:00N 43°26' W 003°20'4 4.3
2018-Jun-18 10:08N 43°25' W 003°25'220.2
2018-Jun-18 10:00N 43°26' W 003°22'815.6
2018-Jun-18 09:30N 43°23' W 003°12'714.8
2018-Jun-18 09:00N 43°20' W 003°02'0 0.4
2018-Jun-18 08:26N 43°20' W 003°03'0 0.0
2018-Jun-18 07:53N 43°20' W 003°03'0 0.0
2018-Jun-18 07:26N 43°20' W 003°03'0 0.0
2018-Jun-18 06:59N 43°20' W 003°03'0 0.0
2018-Jun-17 20:18N 43°20' W 003°03'  
2018-Jun-15 14:05N 43°20' W 003°03'0 0.0
2018-Jun-15 13:59N 43°20' W 003°03'0 0.0
2018-Jun-15 13:29N 43°20' W 003°03'0 0.0
2018-Jun-15 12:59N 43°20' W 003°03'0 0.0
2018-Jun-15 12:29N 43°20' W 003°03'0 0.0
2018-Jun-15 11:59N 43°20' W 003°03'0 0.0
2018-Jun-15 11:29N 43°20' W 003°03'0 0.0
2018-Jun-15 10:53N 43°20' W 003°03'0 0.0
2018-Jun-15 10:29N 43°20' W 003°03'0 0.0
2018-Jun-15 09:59N 43°20' W 003°03'0 0.0
2018-Jun-15 09:29N 43°20' W 003°03'0 0.0
2018-Jun-15 08:59N 43°20' W 003°03'0 0.0
2018-Jun-15 08:29N 43°20' W 003°03'0 0.0
2018-Jun-14 23:03N 43°20' W 003°03'0 0.0
2018-Jun-14 23:00N 43°20' W 003°03'3 6.9
2018-Jun-14 22:30N 43°24' W 003°02'918.4
2018-Jun-14 22:00N 43°26' W 002°50'1 1.7
2018-Jun-14 21:30N 43°26' W 002°51'918.8
2018-Jun-14 21:00N 43°23' W 003°03'3 0.5
2018-Jun-14 16:03N 43°20' W 003°03'0 0.0
2018-Jun-14 15:54N 43°20' W 003°03'0 0.0
2018-Jun-14 15:30N 43°20' W 003°03'0 0.0
2018-Jun-14 15:00N 43°20' W 003°03'0 0.0
2018-Jun-14 14:30N 43°20' W 003°03'0 0.0
2018-Jun-14 14:00N 43°20' W 003°03'0 0.0
2018-Jun-14 13:30N 43°20' W 003°03'0 0.1
2018-Jun-14 13:00N 43°20' W 003°03'0 0.1
2018-Jun-14 12:30N 43°20' W 003°03'0 0.0
2018-Jun-14 12:00N 43°20' W 003°03'0 0.0
2018-Jun-14 11:30N 43°20' W 003°03'0 0.0
2018-Jun-14 11:00N 43°20' W 003°03'0 0.0
2018-Jun-14 10:30N 43°20' W 003°03'0 0.0
2018-Jun-14 10:00N 43°20' W 003°03'0 0.0
2018-Jun-14 09:30N 43°20' W 003°03'0 0.0
2018-Jun-14 09:00N 43°20' W 003°03'0 0.0
2018-Jun-14 08:30N 43°20' W 003°03'0 0.0
2018-Jun-14 08:00N 43°20' W 003°03'0 0.0
2018-Jun-14 07:30N 43°20' W 003°03'0 0.0
2018-Jun-14 07:00N 43°20' W 003°03'0 0.0
2018-Jun-13 12:12N 43°20' W 003°03'0 0.0
2018-Jun-13 12:00N 43°20' W 003°03'713.7
2018-Jun-13 11:30N 43°23' W 003°11'1 0.8
2018-Jun-13 09:59N 43°23' W 003°13'511.4
2018-Jun-13 09:31N 43°23' W 003°05'3 6.2
2018-Jun-13 08:59N 43°20' W 003°03'0 0.0
2018-Jun-13 08:29N 43°20' W 003°03'0 0.0
2018-Jun-13 07:59N 43°20' W 003°03'0 0.0
2018-Jun-13 07:29N 43°20' W 003°03'0 0.0
2018-Jun-13 06:59N 43°20' W 003°03'  

Dump ship's entire track history